Time;durP1;ratioP1;P1;durP2;ratioP2;P2;SDS_P1;SDS_P2;PMS_P1;PMS_P2;Temp;Humidity;BMP_temperature;BMP_pressure;BME280_temperature;BME280_humidity;BME280_pressure;Samples;Min_cycle;Max_cycle;Signal;HPM_P1;HPM_P2
2022/01/23 00:00:43;;;;;;;6.20;3.17;;;;;;;5.43;94.36;102977.91;5034909;28;20028;-80
2022/01/23 00:03:16;;;;;;;6.88;3.90;;;;;;;5.47;94.17;102972.28;5034885;28;20038;-81
2022/01/23 00:05:46;;;;;;;4.45;3.17;;;;;;;5.47;94.26;102971.41;5032187;28;20109;-80
2022/01/23 00:08:18;;;;;;;9.45;3.60;;;;;;;5.43;94.52;102968.06;5017341;28;21677;-80
2022/01/23 00:10:44;;;;;;;5.85;3.88;;;;;;;5.44;94.83;102971.59;5052565;28;20039;-81
2022/01/23 00:13:16;;;;;;;7.07;3.70;;;;;;;5.43;94.62;102965.41;5035748;28;20037;-80
2022/01/23 00:18:28;;;;;;;9.68;4.63;;;;;;;5.41;94.39;102961.97;5048139;28;20056;-80
2022/01/23 00:20:54;;;;;;;20.67;3.20;;;;;;;5.40;94.63;102962.03;5050578;28;20040;-82
2022/01/23 00:31:43;;;;;;;5.90;3.70;;;;;;;5.32;94.49;102934.94;5051607;28;20037;-83
2022/01/23 00:34:08;;;;;;;6.57;3.88;;;;;;;5.38;94.20;102940.78;5032336;28;20052;-79
2022/01/23 00:36:37;;;;;;;8.32;2.97;;;;;;;5.33;94.58;102937.53;5028694;28;20036;-83
2022/01/23 00:39:04;;;;;;;11.02;3.53;;;;;;;5.21;94.27;102914.22;5059823;28;20101;-80
2022/01/23 00:41:29;;;;;;;8.65;4.07;;;;;;;5.39;93.89;102938.97;5013363;28;20035;-79
2022/01/23 00:43:55;;;;;;;10.55;3.80;;;;;;;5.37;94.25;102936.41;5046740;28;20383;-80
2022/01/23 00:46:24;;;;;;;4.72;2.33;;;;;;;5.31;93.54;102925.22;5050149;28;20122;-80
2022/01/23 00:51:30;;;;;;;7.15;3.42;;;;;;;5.40;93.80;102932.69;5032660;28;20086;-80
2022/01/23 00:53:57;;;;;;;6.43;3.17;;;;;;;5.40;93.70;102930.03;5019677;28;20040;-78
2022/01/23 00:56:22;;;;;;;3.67;1.65;;;;;;;5.41;93.75;102929.94;5031562;28;20068;-82
2022/01/23 00:58:48;;;;;;;2.25;1.45;;;;;;;5.41;93.39;102924.59;5016621;28;20486;-84
2022/01/23 01:01:14;;;;;;;8.35;2.80;;;;;;;5.42;93.80;102931.66;5033702;28;20109;-79
2022/01/23 01:03:40;;;;;;;5.40;2.65;;;;;;;5.41;93.65;102921.94;5041698;28;20086;-80
2022/01/23 01:06:06;;;;;;;6.38;3.30;;;;;;;5.38;93.38;102908.78;5033973;28;20055;-79
2022/01/23 01:08:32;;;;;;;3.60;1.90;;;;;;;5.41;93.55;102913.09;5030951;28;20132;-80
2022/01/23 01:33:22;;;;;;;7.05;2.00;;;;;;;5.29;94.27;102890.63;5049240;28;20048;-84
2022/01/23 01:37:57;;;;;;;3.92;2.20;;;;;;;5.33;93.99;102880.66;5032559;28;20036;-78
2022/01/23 01:40:24;;;;;;;5.10;1.88;;;;;;;5.33;93.82;102878.00;5014361;28;20093;-79
2022/01/23 01:42:50;;;;;;;6.53;3.38;;;;;;;5.33;93.66;102872.66;5030128;28;20032;-80
2022/01/23 01:45:28;;;;;;;4.72;2.22;;;;;;;5.29;94.07;102869.28;5031635;28;20463;-79
2022/01/23 01:47:56;;;;;;;6.55;2.65;;;;;;;5.26;93.74;102867.66;5045530;28;20032;-82
2022/01/23 01:50:22;;;;;;;8.25;3.53;;;;;;;5.31;93.66;102872.72;5016899;28;20040;-82
2022/01/23 01:52:48;;;;;;;6.65;3.90;;;;;;;5.26;93.95;102866.81;5043987;28;20496;-82
2022/01/23 01:55:22;;;;;;;9.23;3.85;;;;;;;5.26;94.30;102867.66;5064112;28;20040;-81
2022/01/23 01:57:54;;;;;;;10.43;3.80;;;;;;;5.04;94.45;102829.88;5042919;28;20028;-80
2022/01/23 02:08:31;;;;;;;5.70;3.38;;;;;;;4.94;94.10;102810.00;5042622;28;20154;-80
2022/01/23 02:11:10;;;;;;;8.27;2.80;;;;;;;5.16;94.05;102844.28;5033829;28;20047;-80
2022/01/23 02:13:51;;;;;;;5.82;3.05;;;;;;;5.20;94.44;102846.69;5062897;28;20024;-78
2022/01/23 02:50:39;;;;;;;4.13;2.20;;;;;;;5.12;93.86;102824.94;5033826;28;20036;-81
2022/01/23 02:51:53;;;;;;;7.22;3.28;;;;;;;5.12;94.22;102837.44;5031042;28;20071;-79
2022/01/23 02:54:38;;;;;;;8.50;2.70;;;;;;;5.13;94.43;102837.31;5024671;28;20031;-80
2022/01/23 02:57:06;;;;;;;9.73;3.42;;;;;;;5.17;94.22;102840.69;5041109;28;21200;-81
2022/01/23 02:59:36;;;;;;;7.25;2.33;;;;;;;5.15;94.15;102832.75;5015981;28;20044;-82
2022/01/23 03:02:27;;;;;;;9.73;2.90;;;;;;;5.16;94.34;102833.63;5009494;28;20048;-84
2022/01/23 03:04:59;;;;;;;5.25;2.30;;;;;;;5.19;94.29;102838.78;5044528;28;20036;-79
2022/01/23 03:07:53;;;;;;;12.40;3.75;;;;;;;5.12;94.03;102827.63;5044128;28;20402;-79
2022/01/23 03:10:34;;;;;;;5.88;2.72;;;;;;;5.13;94.22;102829.31;5025712;28;20044;-81
2022/01/23 03:26:31;;;;;;;11.27;3.67;;;;;;;5.17;93.94;102798.00;5053689;28;20429;-80
2022/01/23 03:29:19;;;;;;;3.97;2.75;;;;;;;5.16;94.38;102812.28;5022734;28;20572;-83
2022/01/23 03:34:17;;;;;;;4.28;2.38;;;;;;;5.13;94.17;102791.13;5039671;28;20105;-79
2022/01/23 03:36:43;;;;;;;2.45;1.77;;;;;;;5.16;94.44;102798.94;5035465;28;20081;-80
2022/01/23 03:39:10;;;;;;;6.63;2.13;;;;;;;5.20;94.48;102800.50;5025494;28;20518;-80
2022/01/23 03:41:38;;;;;;;3.67;2.47;;;;;;;5.20;94.15;102801.34;5048625;28;20089;-80
2022/01/23 03:44:06;;;;;;;4.63;2.70;;;;;;;5.23;94.00;102800.31;5049337;28;20037;-87
2022/01/23 03:49:34;;;;;;;2.33;1.50;;;;;;;5.21;93.66;102778.19;5043658;28;20048;-79
2022/01/23 03:52:04;;;;;;;5.18;2.25;;;;;;;5.24;93.94;102783.38;5033215;28;20510;-81
2022/01/23 03:54:30;;;;;;;5.72;2.72;;;;;;;5.20;93.61;102765.81;5047165;28;20028;-79
2022/01/23 03:56:58;;;;;;;4.57;2.25;;;;;;;5.26;93.52;102771.63;5030032;28;20033;-81
2022/01/23 03:59:24;;;;;;;3.00;1.85;;;;;;;5.24;93.26;102762.91;5017741;28;20032;-80
2022/01/23 04:01:50;;;;;;;9.52;2.67;;;;;;;5.27;93.06;102765.38;5044847;28;20032;-84
2022/01/23 04:04:48;;;;;;;3.30;2.30;;;;;;;5.29;92.77;102758.16;5029597;28;20428;-81
2022/01/23 04:07:21;;;;;;;3.92;1.83;;;;;;;5.31;92.90;102765.19;5035854;28;20036;-80
2022/01/23 04:09:47;;;;;;;2.60;1.52;;;;;;;5.31;93.06;102760.69;5028490;28;20032;-79
2022/01/23 04:13:07;;;;;;;2.67;1.95;;;;;;;5.28;92.78;102759.06;5062361;28;20123;-81
2022/01/23 04:34:16;;;;;;;5.93;2.88;;;;;;;5.25;92.78;102745.06;5045686;28;20409;-82
2022/01/23 05:01:07;;;;;;;6.93;2.70;;;;;;;5.26;92.93;102736.09;5049834;28;20045;-83
2022/01/23 05:06:26;;;;;;;6.60;2.85;;;;;;;5.14;92.55;102713.72;5029557;28;20060;-81
2022/01/23 05:08:52;;;;;;;2.50;1.75;;;;;;;5.20;92.89;102723.16;5029207;28;20140;-83
2022/01/23 05:11:18;;;;;;;7.72;3.40;;;;;;;5.21;93.16;102724.84;5026593;28;20486;-83
2022/01/23 05:13:44;;;;;;;4.82;1.65;;;;;;;5.19;93.13;102722.31;5031972;28;20123;-81
2022/01/23 05:16:11;;;;;;;17.35;2.65;;;;;;;5.17;93.03;102712.69;5044982;28;20040;-78
2022/01/23 05:18:37;;;;;;;5.13;3.03;;;;;;;5.20;92.42;102712.50;5029470;28;20048;-80
2022/01/23 05:23:45;;;;;;;5.32;3.28;;;;;;;5.19;92.91;102716.97;5045671;28;20032;-80
2022/01/23 05:26:11;;;;;;;1.95;1.33;;;;;;;5.15;92.92;102710.09;5018471;28;20036;-79
2022/01/23 05:28:36;;;;;;;4.97;1.90;;;;;;;5.16;93.17;102709.16;5015374;28;20499;-78
2022/01/23 05:31:02;;;;;;;4.03;2.53;;;;;;;5.17;93.16;102710.88;5029337;28;20398;-80
2022/01/23 05:33:28;;;;;;;5.13;1.95;;;;;;;5.11;92.93;102700.56;5035577;28;20043;-78
2022/01/23 05:35:53;;;;;;;2.08;1.45;;;;;;;5.12;93.19;102696.09;5046495;28;20370;-81
2022/01/23 05:38:19;;;;;;;4.35;2.33;;;;;;;5.15;92.43;102691.41;5012847;28;20104;-79
2022/01/23 05:40:45;;;;;;;5.47;1.92;;;;;;;5.21;92.40;102704.41;5045634;28;20029;-79
2022/01/23 05:43:10;;;;;;;5.10;2.28;;;;;;;5.20;91.94;102705.34;5065016;28;20493;-79
2022/01/23 05:45:41;;;;;;;4.85;2.88;;;;;;;5.17;91.79;102694.88;5030372;28;20039;-83
2022/01/23 05:48:08;;;;;;;7.25;2.70;;;;;;;5.13;92.11;102682.66;5029390;28;20032;-79
2022/01/23 05:50:33;;;;;;;3.10;1.80;;;;;;;5.05;91.94;102687.59;5058251;28;20395;-79
2022/01/23 05:52:59;;;;;;;5.18;3.15;;;;;;;5.15;92.22;102693.25;5031283;28;20032;-82
2022/01/23 05:55:25;;;;;;;6.82;2.65;;;;;;;5.14;91.94;102691.53;5016988;28;20025;-78
2022/01/23 05:57:50;;;;;;;5.90;1.85;;;;;;;5.09;92.14;102681.13;5032073;28;20040;-84
2022/01/23 06:00:16;;;;;;;3.50;2.33;;;;;;;5.11;91.93;102681.03;5050995;28;20025;-82
2022/01/23 06:02:44;;;;;;;5.88;3.00;;;;;;;5.10;91.82;102671.31;5042906;28;20060;-80
2022/01/23 06:05:10;;;;;;;2.88;1.60;;;;;;;5.09;92.13;102673.13;5046542;28;20032;-79
2022/01/23 06:07:38;;;;;;;2.72;1.80;;;;;;;5.10;92.01;102669.50;5043999;28;20048;-83
2022/01/23 06:10:05;;;;;;;4.85;2.85;;;;;;;5.03;91.32;102654.84;5011141;28;20035;-81
2022/01/23 06:12:30;;;;;;;2.35;1.58;;;;;;;5.17;91.60;102670.00;5046308;28;20040;-79
2022/01/23 06:14:56;;;;;;;8.52;2.72;;;;;;;5.19;91.06;102679.63;5029822;28;20032;-83
2022/01/23 06:17:22;;;;;;;7.22;2.63;;;;;;;5.14;91.08;102665.72;5030004;28;20033;-80
2022/01/23 06:19:48;;;;;;;3.42;2.13;;;;;;;5.22;91.12;102683.94;5018257;28;20035;-78
2022/01/23 06:22:15;;;;;;;3.70;2.15;;;;;;;5.23;91.11;102685.63;5044473;28;20059;-80
2022/01/23 06:24:47;;;;;;;6.82;3.63;;;;;;;5.14;90.90;102672.88;5032903;28;20040;-80
2022/01/23 06:27:13;;;;;;;3.92;2.13;;;;;;;5.19;91.15;102684.13;5044865;28;20624;-82
2022/01/23 06:29:43;;;;;;;5.65;3.55;;;;;;;5.18;91.07;102693.91;5043606;28;20111;-80
2022/01/23 06:32:08;;;;;;;3.85;2.42;;;;;;;5.15;90.72;102680.75;5054501;28;20028;-80
2022/01/23 06:34:34;;;;;;;1.95;1.23;;;;;;;5.18;90.81;102682.38;5026644;28;20032;-80
2022/01/23 06:37:00;;;;;;;4.07;1.80;;;;;;;5.11;90.71;102671.25;5031989;28;20442;-80
2022/01/23 06:39:27;;;;;;;5.38;2.22;;;;;;;5.17;90.63;102686.00;5016912;28;20382;-81
2022/01/23 06:41:53;;;;;;;1.70;1.58;;;;;;;5.16;90.42;102685.16;5030582;28;20032;-81
2022/01/23 06:44:19;;;;;;;5.72;2.85;;;;;;;5.20;89.65;102689.34;5043621;28;20032;-79
2022/01/23 06:46:45;;;;;;;5.35;2.80;;;;;;;5.21;89.52;102679.53;5046084;28;20072;-79
2022/01/23 06:49:11;;;;;;;5.97;2.97;;;;;;;5.24;89.39;102688.22;5029669;28;20032;-81
2022/01/23 06:51:38;;;;;;;3.75;2.05;;;;;;;5.23;89.65;102690.97;5043116;28;20033;-83
2022/01/23 06:54:04;;;;;;;7.47;2.58;;;;;;;5.13;89.74;102677.31;5046577;28;20054;-81
2022/01/23 06:56:30;;;;;;;5.63;2.38;;;;;;;5.22;89.42;102675.91;5011432;28;20404;-80
2022/01/23 06:58:56;;;;;;;7.03;2.40;;;;;;;5.23;89.31;102681.16;5035712;28;20043;-81
2022/01/23 07:01:22;;;;;;;3.28;2.20;;;;;;;4.91;89.30;102626.25;5060551;28;20037;-81
2022/01/23 07:03:47;;;;;;;5.93;2.08;;;;;;;5.26;89.24;102686.28;5029370;28;22593;-80
2022/01/23 07:06:13;;;;;;;4.90;2.15;;;;;;;5.25;89.16;102681.91;5019814;28;20451;-80
2022/01/23 07:08:39;;;;;;;5.55;2.60;;;;;;;5.27;89.04;102690.69;5028070;28;20043;-78
2022/01/23 07:11:04;;;;;;;2.47;1.48;;;;;;;5.23;89.05;102677.63;5030120;28;20629;-81
2022/01/23 07:13:30;;;;;;;6.65;2.00;;;;;;;5.24;89.31;102679.38;5024860;28;20547;-81
2022/01/23 07:15:55;;;;;;;2.67;1.77;;;;;;;5.21;89.31;102683.06;5040120;28;20555;-80
2022/01/23 07:18:21;;;;;;;2.78;1.73;;;;;;;5.22;88.85;102682.09;5033940;28;20101;-80
2022/01/23 07:20:49;;;;;;;5.03;1.60;;;;;;;5.26;89.31;102685.44;5023503;28;20498;-84
2022/01/23 07:23:21;;;;;;;5.53;2.50;;;;;;;5.30;88.85;102681.66;5036214;28;20040;-78
2022/01/23 07:25:47;;;;;;;5.75;2.13;;;;;;;5.26;88.56;102683.63;5022847;28;20394;-80
2022/01/23 07:28:15;;;;;;;7.55;2.08;;;;;;;5.27;88.79;102681.84;5025685;28;20617;-80
2022/01/23 07:30:50;;;;;;;3.40;2.28;;;;;;;5.33;88.76;102685.94;5021382;28;20383;-84
2022/01/23 07:33:16;;;;;;;1.60;1.40;;;;;;;5.35;88.46;102690.22;5040906;28;20052;-80
2022/01/23 07:35:41;;;;;;;2.45;1.70;;;;;;;5.03;88.62;102634.38;5024506;28;20036;-79
2022/01/23 07:38:09;;;;;;;1.48;1.13;;;;;;;5.38;88.63;102695.38;5007262;28;20447;-82
2022/01/23 07:40:36;;;;;;;6.07;1.80;;;;;;;5.35;88.52;102690.22;5021154;28;20089;-78
2022/01/23 07:43:02;;;;;;;5.57;3.13;;;;;;;5.37;88.64;102693.66;5024896;28;20036;-78
2022/01/23 07:45:28;;;;;;;7.03;2.92;;;;;;;5.32;88.72;102692.19;5038791;28;22393;-80
2022/01/23 07:47:53;;;;;;;4.90;1.77;;;;;;;5.34;88.97;102696.50;5007226;28;20028;-81
2022/01/23 07:50:19;;;;;;;6.05;2.58;;;;;;;5.29;88.94;102696.78;5045525;28;20504;-81
2022/01/23 07:52:45;;;;;;;2.05;1.48;;;;;;;5.33;88.57;102701.94;5038733;28;20036;-80
2022/01/23 07:55:15;;;;;;;5.22;2.83;;;;;;;5.33;88.76;102701.94;5028116;28;20036;-80
2022/01/23 07:57:44;;;;;;;4.07;2.25;;;;;;;5.29;89.23;102696.78;5039807;28;20040;-80
2022/01/23 08:00:12;;;;;;;5.75;2.67;;;;;;;5.28;89.50;102699.53;5036102;28;20086;-78
2022/01/23 08:02:37;;;;;;;6.82;2.47;;;;;;;5.22;89.70;102698.13;5024474;28;20051;-80
2022/01/23 08:05:04;;;;;;;5.80;2.70;;;;;;;5.22;89.65;102703.44;5027050;28;20036;-79
2022/01/23 08:10:02;;;;;;;4.38;2.10;;;;;;;5.21;89.52;102690.19;5029972;28;20036;-79
2022/01/23 08:12:29;;;;;;;8.95;2.88;;;;;;;5.25;90.09;102702.41;5014350;28;20024;-80
2022/01/23 08:14:56;;;;;;;4.57;2.30;;;;;;;5.18;90.04;102690.38;5011365;28;21927;-79
2022/01/23 08:17:25;;;;;;;5.65;2.60;;;;;;;5.22;90.26;102706.09;5016177;28;20063;-78
2022/01/23 08:19:55;;;;;;;3.22;1.83;;;;;;;5.13;90.42;102692.47;5053836;28;20475;-79
2022/01/23 08:22:22;;;;;;;4.50;2.50;;;;;;;5.20;90.35;102705.34;5040071;28;20032;-84
2022/01/23 08:24:48;;;;;;;9.07;2.72;;;;;;;5.22;90.39;102707.94;5033801;28;20164;-78
2022/01/23 08:27:14;;;;;;;2.72;1.70;;;;;;;5.21;90.74;102708.84;5028146;28;20036;-80
2022/01/23 08:29:40;;;;;;;5.25;2.83;;;;;;;5.21;90.60;102715.06;5034628;28;20028;-78
2022/01/23 08:32:06;;;;;;;8.00;3.50;;;;;;;5.14;91.07;102697.72;5012810;28;20063;-80
2022/01/23 08:34:32;;;;;;;8.80;2.88;;;;;;;5.20;91.29;102701.81;5061371;28;21678;-81
2022/01/23 08:36:58;;;;;;;9.50;3.75;;;;;;;5.18;91.19;102699.22;5030548;28;20093;-78
2022/01/23 08:39:25;;;;;;;9.38;3.10;;;;;;;5.12;91.56;102691.63;5027867;28;20546;-79
2022/01/23 08:41:52;;;;;;;4.47;2.35;;;;;;;5.12;91.82;102693.44;5048788;28;20033;-82
2022/01/23 08:44:20;;;;;;;3.53;2.33;;;;;;;5.12;91.98;102690.75;5048284;28;20482;-81
2022/01/23 08:46:46;;;;;;;8.05;2.72;;;;;;;5.10;92.29;102690.84;5049495;28;20048;-81
2022/01/23 08:49:12;;;;;;;5.82;2.00;;;;;;;5.13;92.49;102695.13;5040141;28;20032;-81
2022/01/23 08:51:37;;;;;;;6.68;2.85;;;;;;;5.11;92.35;102686.34;5037898;28;20374;-79
2022/01/23 08:54:04;;;;;;;5.07;2.97;;;;;;;5.13;92.42;102682.66;5057411;28;20032;-83
2022/01/23 08:56:30;;;;;;;8.60;3.03;;;;;;;5.16;92.37;102690.50;5046420;28;20107;-79
2022/01/23 08:58:56;;;;;;;7.88;3.03;;;;;;;5.12;92.26;102678.28;5065909;28;20039;-80
2022/01/23 09:01:23;;;;;;;4.18;1.58;;;;;;;5.19;92.26;102681.44;5065595;28;20025;-79
2022/01/23 09:03:48;;;;;;;9.05;4.85;;;;;;;5.23;91.78;102680.28;5034316;28;20489;-79
2022/01/23 09:06:14;;;;;;;10.55;4.85;;;;;;;5.24;92.05;102680.22;5035292;28;20036;-81
2022/01/23 09:08:40;;;;;;;11.90;6.30;;;;;;;5.25;91.97;102676.56;5045846;28;20032;-82
2022/01/23 09:11:10;;;;;;;7.90;5.07;;;;;;;5.27;92.22;102671.16;5033369;28;20078;-82
2022/01/23 09:16:06;;;;;;;3.92;2.63;;;;;;;5.32;92.23;102682.41;5024453;28;20037;-78
2022/01/23 09:18:33;;;;;;;3.25;2.08;;;;;;;5.35;92.10;102678.69;5039847;28;20501;-80
2022/01/23 09:20:59;;;;;;;7.70;3.97;;;;;;;5.39;91.81;102675.72;5027363;28;20043;-80
2022/01/23 09:23:25;;;;;;;8.68;3.45;;;;;;;5.42;91.68;102680.00;5046868;28;20032;-80
2022/01/23 09:25:51;;;;;;;10.75;3.90;;;;;;;5.32;91.80;102658.41;5043704;28;20040;-80
2022/01/23 09:28:19;;;;;;;8.73;4.28;;;;;;;5.34;91.89;102652.97;5037824;28;20059;-81
2022/01/23 09:30:51;;;;;;;5.80;3.65;;;;;;;5.49;91.80;102665.34;5027674;28;20040;-78
2022/01/23 09:33:24;;;;;;;7.85;4.03;;;;;;;5.53;91.84;102666.88;5027454;28;20048;-80
2022/01/23 09:35:50;;;;;;;8.98;5.00;;;;;;;5.45;91.83;102648.69;5047505;28;20108;-79
2022/01/23 09:38:15;;;;;;;8.25;4.63;;;;;;;5.43;91.89;102633.72;5046467;28;20100;-79
2022/01/23 09:40:42;;;;;;;6.82;3.28;;;;;;;5.65;91.72;102666.09;5032660;28;20028;-79
2022/01/23 09:43:10;;;;;;;7.32;3.72;;;;;;;5.73;91.40;102662.94;5035217;28;20032;-79
2022/01/23 09:45:38;;;;;;;8.10;4.00;;;;;;;5.72;91.54;102651.41;5030540;28;20101;-81
2022/01/23 09:48:05;;;;;;;3.75;2.70;;;;;;;5.81;91.30;102660.63;5051949;28;20063;-80
2022/01/23 09:50:32;;;;;;;6.22;2.50;;;;;;;5.86;91.11;102658.53;5046790;28;20395;-81
2022/01/23 09:52:58;;;;;;;6.68;2.83;;;;;;;5.88;90.64;102642.44;5052283;28;20090;-81
2022/01/23 09:55:26;;;;;;;3.97;2.45;;;;;;;5.98;90.89;102645.38;5041926;28;20043;-80
2022/01/23 09:57:53;;;;;;;9.32;5.03;;;;;;;5.95;90.61;102633.06;5031910;28;20025;-80
2022/01/23 10:00:24;;;;;;;15.93;6.05;;;;;;;6.06;89.89;102632.38;5045515;28;20419;-80
2022/01/23 10:02:50;;;;;;;26.27;10.65;;;;;;;6.16;89.63;102638.81;5041950;28;20078;-82
2022/01/23 10:05:16;;;;;;;7.97;3.90;;;;;;;6.21;89.15;102628.69;5028546;28;20066;-80
2022/01/23 10:07:43;;;;;;;8.27;3.28;;;;;;;6.30;88.87;102635.28;5046601;28;20403;-86
2022/01/23 10:10:18;;;;;;;9.25;4.93;;;;;;;6.29;88.85;102621.03;5017797;28;20028;-84
2022/01/23 10:12:58;;;;;;;5.15;2.22;;;;;;;6.41;88.73;102624.72;5021354;28;20098;-88
2022/01/23 10:15:27;;;;;;;5.45;2.45;;;;;;;6.46;87.91;102627.94;5051674;28;20151;-85
2022/01/23 10:17:53;;;;;;;8.85;4.35;;;;;;;6.52;87.77;102630.19;5042638;28;20021;-79
2022/01/23 10:20:20;;;;;;;4.57;2.45;;;;;;;6.49;87.83;102624.19;5029088;28;20036;-83
2022/01/23 10:22:51;;;;;;;8.13;3.72;;;;;;;6.53;87.86;102631.88;5028360;28;20127;-80
2022/01/23 10:25:20;;;;;;;12.07;2.58;;;;;;;6.57;87.87;102630.72;5051040;28;20044;-80
2022/01/23 10:28:00;;;;;;;9.50;2.83;;;;;;;6.64;87.22;102630.31;5022992;28;20071;-82
2022/01/23 10:30:28;;;;;;;6.20;2.28;;;;;;;6.72;87.18;102627.97;5042049;28;20117;-85
2022/01/23 10:33:06;;;;;;;9.07;3.38;;;;;;;6.76;86.80;102626.81;5046568;28;20529;-82
2022/01/23 10:35:35;;;;;;;9.80;3.05;;;;;;;6.66;86.39;102609.69;5046459;28;20479;-83
2022/01/23 10:38:13;;;;;;;9.52;3.22;;;;;;;6.71;87.12;102623.59;5036456;28;20111;-81
2022/01/23 10:40:49;;;;;;;6.82;2.97;;;;;;;6.69;86.59;102614.81;5020829;28;20133;-83
2022/01/23 10:48:45;;;;;;;5.53;2.17;;;;;;;6.67;87.34;102606.91;5053758;28;20036;-83
2022/01/23 10:51:30;;;;;;;4.95;2.35;;;;;;;6.76;86.60;102616.97;5031127;28;20133;-81
2022/01/23 10:54:01;;;;;;;6.47;3.30;;;;;;;6.79;87.29;102610.56;5047779;28;20504;-82
2022/01/23 10:56:29;;;;;;;7.93;2.90;;;;;;;6.74;87.74;102596.66;5050784;28;20068;-81
2022/01/23 10:59:01;;;;;;;2.63;1.85;;;;;;;6.87;86.95;102612.69;5055297;28;20032;-83
2022/01/23 11:01:30;;;;;;;3.38;2.08;;;;;;;6.90;86.52;102599.97;5064726;28;20149;-82
2022/01/23 11:04:11;;;;;;;6.47;2.50;;;;;;;6.93;86.63;102609.59;5036838;28;20097;-82
2022/01/23 11:07:04;;;;;;;10.55;2.50;;;;;;;6.95;86.65;102600.50;5053107;28;20089;-82
2022/01/23 11:09:36;;;;;;;2.45;1.60;;;;;;;7.01;86.97;102601.88;5050752;28;20079;-83
2022/01/23 11:12:15;;;;;;;5.67;2.07;;;;;;;6.95;86.24;102591.63;5052981;28;20028;-81
2022/01/23 11:17:26;;;;;;;9.45;3.17;;;;;;;6.79;86.54;102549.06;5068152;28;20029;-83
2022/01/23 11:19:58;;;;;;;6.82;2.38;;;;;;;6.99;85.81;102596.66;5044758;28;20534;-84
2022/01/23 11:22:35;;;;;;;12.02;2.67;;;;;;;7.05;85.83;102596.22;5019169;28;20032;-82
2022/01/23 11:25:05;;;;;;;9.27;3.25;;;;;;;7.03;86.37;102590.13;5047711;28;20086;-82
2022/01/23 11:27:37;;;;;;;14.10;6.35;;;;;;;7.11;86.46;102591.41;5032709;28;20544;-82
2022/01/23 11:30:10;;;;;;;15.60;6.07;;;;;;;6.97;85.80;102574.50;5033601;28;20041;-81
2022/01/23 11:32:38;;;;;;;8.90;3.45;;;;;;;7.18;85.92;102590.00;5060895;28;20071;-81
2022/01/23 11:35:16;;;;;;;22.65;7.85;;;;;;;7.26;85.43;102583.16;5067562;28;20041;-81
2022/01/23 11:37:50;;;;;;;6.47;3.20;;;;;;;7.26;84.92;102579.63;5033333;28;20495;-83
2022/01/23 11:40:42;;;;;;;14.30;4.15;;;;;;;7.32;85.18;102587.19;5033501;28;20029;-85
2022/01/23 11:54:03;;;;;;;8.20;2.90;;;;;;;7.75;83.98;102561.81;5052478;28;20197;-82
2022/01/23 11:56:35;;;;;;;8.50;3.75;;;;;;;7.66;83.42;102536.56;5033006;28;20036;-82
2022/01/23 11:59:10;;;;;;;5.22;1.88;;;;;;;7.91;82.29;102560.56;5051855;28;20032;-83
2022/01/23 12:01:39;;;;;;;6.70;2.33;;;;;;;7.98;82.01;102554.75;5043632;28;20032;-84
2022/01/23 12:04:16;;;;;;;4.28;1.67;;;;;;;8.06;81.92;102557.72;5032838;28;20112;-82
2022/01/23 12:06:44;;;;;;;3.13;1.52;;;;;;;8.10;81.33;102552.00;5066196;28;20044;-83
2022/01/23 12:09:10;;;;;;;9.02;2.45;;;;;;;8.22;81.46;102552.03;5041564;28;20421;-84
2022/01/23 12:16:57;;;;;;;4.95;2.45;;;;;;;7.84;82.06;102535.22;5046571;28;20535;-88
2022/01/23 12:19:25;;;;;;;4.55;1.65;;;;;;;7.74;82.72;102533.34;5018969;28;20625;-85
2022/01/23 12:21:53;;;;;;;9.07;2.22;;;;;;;7.77;82.81;102539.31;5049556;28;20025;-85
2022/01/23 12:24:24;;;;;;;6.47;2.22;;;;;;;7.90;82.71;102534.75;5036139;28;20068;-86
2022/01/23 12:26:52;;;;;;;2.80;1.13;;;;;;;7.83;82.12;102496.03;5048814;28;20024;-82
2022/01/23 12:29:28;;;;;;;9.70;2.10;;;;;;;8.06;81.96;102515.69;5033520;28;20121;-82
2022/01/23 12:32:16;;;;;;;7.20;3.60;;;;;;;8.27;81.67;102526.59;5066302;28;20032;-82
2022/01/23 12:34:50;;;;;;;4.50;2.03;;;;;;;8.21;82.21;102527.09;5054203;28;20470;-83
2022/01/23 12:37:16;;;;;;;6.68;2.17;;;;;;;8.14;82.76;102521.31;5038654;28;20466;-80
2022/01/23 12:39:45;;;;;;;14.13;4.88;;;;;;;8.16;82.64;102526.56;5043067;28;20036;-81
2022/01/23 12:42:13;;;;;;;9.10;2.22;;;;;;;8.14;82.94;102521.31;5064146;28;20070;-81
2022/01/23 12:44:39;;;;;;;9.77;3.63;;;;;;;8.17;82.39;102517.56;5052331;28;20538;-81
2022/01/23 12:47:18;;;;;;;6.70;3.00;;;;;;;8.31;81.94;102511.16;5038922;28;20039;-82
2022/01/23 12:49:54;;;;;;;6.90;2.63;;;;;;;8.27;81.25;102477.53;5055775;28;20036;-82
2022/01/23 12:52:21;;;;;;;6.28;2.03;;;;;;;8.45;80.28;102510.97;5038463;28;20029;-82
2022/01/23 12:54:47;;;;;;;13.20;5.40;;;;;;;8.37;80.89;102506.16;5059350;28;20394;-81
2022/01/23 12:57:18;;;;;;;16.25;6.95;;;;;;;8.28;81.66;102501.53;5071689;28;20044;-86
2022/01/23 13:00:00;;;;;;;10.93;3.60;;;;;;;8.23;81.70;102495.66;5062190;28;20510;-80
2022/01/23 13:02:33;;;;;;;11.73;3.72;;;;;;;8.14;81.84;102483.81;5019361;28;20052;-81
2022/01/23 13:04:58;;;;;;;29.07;8.00;;;;;;;8.18;82.46;102505.88;5036170;28;20108;-81
2022/01/23 13:07:51;;;;;;;12.65;3.85;;;;;;;7.91;83.03;102439.16;5060192;28;20352;-82
2022/01/23 13:18:29;;;;;;;14.32;5.30;;;;;;;8.04;83.00;102493.50;5055172;28;20024;-85
2022/01/23 13:32:13;;;;;;;7.50;3.28;;;;;;;8.46;81.46;102444.78;5024923;28;20110;-87
2022/01/23 13:34:41;;;;;;;10.02;4.07;;;;;;;8.41;81.29;102446.97;5036322;28;20028;-87
2022/01/23 13:37:22;;;;;;;8.52;3.47;;;;;;;8.46;81.37;102444.78;5054411;28;20057;-80
2022/01/23 13:39:56;;;;;;;3.95;2.83;;;;;;;8.47;81.61;102442.00;5029913;28;20044;-81
2022/01/23 13:53:52;;;;;;;8.25;3.47;;;;;;;8.09;81.17;102394.91;5037522;28;20037;-82
2022/01/23 13:59:16;;;;;;;9.52;4.05;;;;;;;8.44;80.37;102412.78;5067098;28;20033;-81
2022/01/23 14:02:06;;;;;;;7.82;3.33;;;;;;;8.47;80.06;102398.28;5070654;28;20082;-82
2022/01/23 14:05:14;;;;;;;8.98;3.55;;;;;;;8.64;79.75;102407.63;5047871;28;20494;-81
2022/01/23 14:07:52;;;;;;;13.45;6.63;;;;;;;8.57;80.02;102396.53;5047615;28;20040;-82
2022/01/23 14:10:23;;;;;;;12.48;4.35;;;;;;;8.66;79.69;102406.53;5052535;28;20119;-82
2022/01/23 14:12:53;;;;;;;7.53;4.22;;;;;;;8.66;79.57;102393.13;5050730;28;20459;-83
2022/01/23 14:15:25;;;;;;;6.80;2.85;;;;;;;8.58;80.00;102390.22;5040305;28;20040;-83
2022/01/23 14:18:05;;;;;;;3.88;2.53;;;;;;;8.59;80.20;102392.75;5049704;28;20136;-83
2022/01/23 14:20:35;;;;;;;7.32;3.05;;;;;;;8.52;80.62;102388.00;5045692;28;20105;-85
2022/01/23 14:23:18;;;;;;;7.22;3.35;;;;;;;8.48;80.89;102378.53;5050752;28;20044;-85
2022/01/23 14:25:57;;;;;;;14.32;4.38;;;;;;;8.52;80.58;102385.31;5019265;28;20032;-82
2022/01/23 14:28:36;;;;;;;5.68;3.42;;;;;;;8.73;80.38;102386.31;5031797;28;20035;-83
2022/01/23 14:31:15;;;;;;;6.38;2.35;;;;;;;8.79;80.00;102375.06;5023643;28;20479;-82
2022/01/23 14:33:48;;;;;;;12.20;4.88;;;;;;;8.93;79.53;102360.53;5043965;28;20413;-82
2022/01/23 14:36:21;;;;;;;13.93;4.47;;;;;;;9.28;78.46;102380.91;5048214;28;20037;-83
2022/01/23 14:39:01;;;;;;;15.75;5.13;;;;;;;9.88;75.88;102360.59;5034418;28;20041;-82
2022/01/23 14:41:30;;;;;;;7.32;3.15;;;;;;;10.47;73.51;102367.13;5016523;28;20048;-83
2022/01/23 14:43:57;;;;;;;8.52;2.65;;;;;;;12.07;67.88;102374.06;5033109;28;20144;-83
2022/01/23 14:46:25;;;;;;;14.55;6.30;;;;;;;12.45;62.50;102307.47;5035596;28;20122;-81
2022/01/23 14:48:59;;;;;;;13.70;5.80;;;;;;;12.61;63.21;102366.19;5034279;28;20481;-81
2022/01/23 14:51:26;;;;;;;11.88;3.75;;;;;;;10.51;69.20;102332.78;5040827;28;20036;-81
2022/01/23 14:53:53;;;;;;;9.82;4.82;;;;;;;9.71;73.71;102363.00;5031960;28;20050;-82
2022/01/23 14:56:20;;;;;;;9.85;3.92;;;;;;;9.15;76.88;102378.38;5013013;28;20072;-82
2022/01/23 14:58:49;;;;;;;6.88;3.35;;;;;;;8.72;79.33;102376.53;5028531;28;20028;-83
2022/01/23 15:01:16;;;;;;;11.38;3.65;;;;;;;8.35;80.94;102359.84;5035471;28;20105;-81
2022/01/23 15:03:55;;;;;;;8.10;3.92;;;;;;;8.28;81.96;102366.66;5018421;28;20114;-82
2022/01/23 15:06:23;;;;;;;11.30;4.47;;;;;;;8.20;83.22;102374.44;5027543;28;20075;-84
2022/01/23 15:08:54;;;;;;;8.82;5.03;;;;;;;8.19;83.96;102357.53;5018808;28;20028;-80
2022/01/23 15:11:20;;;;;;;18.33;4.95;;;;;;;8.08;84.13;102353.00;5034430;28;20671;-81
2022/01/23 15:13:46;;;;;;;6.63;3.95;;;;;;;8.13;83.95;102364.22;5033218;28;20792;-80